createdAt,value
2018-04-30T00:03:52.360Z,3.6
2018-04-30T00:09:43.101Z,2.3
2018-04-30T00:15:33.818Z,2.28
2018-04-30T00:21:24.572Z,2.58
2018-04-30T00:27:15.278Z,2.69
2018-04-30T00:33:05.984Z,2.16
2018-04-30T00:38:56.733Z,2.6
2018-04-30T00:44:47.444Z,2.15
2018-04-30T00:50:38.236Z,2.47
2018-04-30T00:56:28.925Z,2.63
2018-04-30T01:02:19.673Z,3.29
2018-04-30T01:08:10.406Z,2.62
2018-04-30T01:14:01.158Z,2.6
2018-04-30T01:19:51.848Z,2.27
2018-04-30T01:25:42.552Z,2.36
2018-04-30T01:31:33.353Z,2.33
2018-04-30T01:37:23.994Z,2.92
2018-04-30T01:43:14.744Z,2.44
2018-04-30T01:49:05.449Z,2.3
2018-04-30T01:54:56.209Z,2.67
2018-04-30T02:00:46.953Z,2.92
2018-04-30T02:06:37.656Z,2.83
2018-04-30T02:12:28.392Z,2.88
2018-04-30T02:18:19.091Z,3.17
2018-04-30T02:24:09.862Z,2.73
2018-04-30T02:30:00.540Z,2.29
2018-04-30T02:35:51.266Z,2.49
2018-04-30T02:41:41.952Z,2.53
2018-04-30T02:47:32.672Z,3.16
2018-04-30T02:53:23.477Z,2.54
2018-04-30T02:59:14.198Z,2.95
2018-04-30T03:05:04.838Z,2.59
2018-04-30T03:10:55.578Z,3.43
2018-04-30T03:16:46.336Z,2.46
2018-04-30T03:22:37.012Z,2.72
2018-04-30T03:28:27.736Z,2.58
2018-04-30T03:34:18.485Z,2.8
2018-04-30T03:40:09.223Z,2.74
2018-04-30T03:45:59.966Z,2.84
2018-04-30T03:51:50.655Z,2.55
2018-04-30T03:57:41.386Z,2.96
2018-04-30T04:03:32.116Z,2.74
2018-04-30T04:09:22.825Z,3.32
2018-04-30T04:15:13.543Z,3.58
2018-04-30T04:21:04.292Z,2.76
2018-04-30T04:26:55.036Z,2.69
2018-04-30T04:32:45.716Z,2.72
2018-04-30T04:38:36.463Z,3.64
2018-04-30T04:44:27.163Z,3.42
2018-04-30T04:50:17.883Z,3
2018-04-30T04:56:08.675Z,4.13
2018-04-30T05:01:59.343Z,3.56
2018-04-30T05:07:50.067Z,3.72
2018-04-30T05:13:40.836Z,3.39
2018-04-30T05:19:31.507Z,3.44
2018-04-30T05:25:22.204Z,3.62
2018-04-30T05:31:12.967Z,3.57
2018-04-30T05:37:03.698Z,3.76
2018-04-30T05:42:54.418Z,3.69
2018-04-30T05:48:45.112Z,3.22
2018-04-30T05:54:35.857Z,4.08
2018-04-30T06:00:26.563Z,3.14
2018-04-30T06:06:17.280Z,2.94
2018-04-30T06:12:08.049Z,3.16
2018-04-30T06:17:58.744Z,2.5
2018-04-30T06:23:49.480Z,2.51
2018-04-30T06:29:40.197Z,2.58
2018-04-30T06:35:30.932Z,2.86
2018-04-30T06:41:21.625Z,2.96
2018-04-30T06:47:12.351Z,3.28
2018-04-30T06:53:03.071Z,2.82
2018-04-30T06:58:53.783Z,2.36
2018-04-30T07:04:44.511Z,2.21
2018-04-30T07:10:35.231Z,2.32
2018-04-30T07:16:25.997Z,2.55
2018-04-30T07:22:16.702Z,2.49
2018-04-30T07:28:07.395Z,2.26
2018-04-30T07:33:58.111Z,1.83
2018-04-30T07:39:48.835Z,1.6
2018-04-30T07:45:39.562Z,2.57
2018-04-30T07:51:30.306Z,2.43
2018-04-30T07:57:21.112Z,2.61
2018-04-30T08:03:11.872Z,1.67
2018-04-30T08:09:02.524Z,2.4
2018-04-30T08:14:53.330Z,1.6
2018-04-30T08:20:43.939Z,1.68
2018-04-30T08:26:34.694Z,2.3
2018-04-30T08:32:25.432Z,2
2018-04-30T08:38:16.130Z,1.53
2018-04-30T08:44:06.822Z,1.96
2018-04-30T08:49:57.597Z,1.84
2018-04-30T08:55:48.316Z,1.92
2018-04-30T09:01:39.087Z,1.6
2018-04-30T09:07:29.778Z,1.71
2018-04-30T09:13:20.521Z,1.72
2018-04-30T09:19:11.229Z,1.85
2018-04-30T09:25:02.025Z,1.85
2018-04-30T09:30:52.696Z,1.78
2018-04-30T09:36:43.410Z,1.45
2018-04-30T09:42:34.151Z,2.21
2018-04-30T09:48:24.880Z,1.93
2018-04-30T09:54:15.620Z,2.05
2018-04-30T10:00:06.323Z,2
2018-04-30T10:05:57.040Z,2.17
2018-04-30T10:11:47.796Z,1.79
2018-04-30T10:17:38.651Z,2.83
2018-04-30T10:23:29.308Z,1.9
2018-04-30T10:29:20.012Z,2.37
2018-04-30T10:35:10.718Z,2.04
2018-04-30T10:41:01.456Z,2.08
2018-04-30T10:46:52.224Z,1.99
2018-04-30T10:52:42.919Z,1.83
2018-04-30T10:58:33.674Z,1.84
2018-04-30T11:04:24.352Z,2.19
2018-04-30T11:10:15.119Z,2.21
2018-04-30T11:16:05.815Z,2.25
2018-04-30T11:21:56.578Z,2.12
2018-04-30T11:27:47.328Z,2.18
2018-04-30T11:33:38.031Z,1.98
2018-04-30T11:39:28.763Z,2.27
2018-04-30T11:45:19.521Z,2.26
2018-04-30T11:51:10.212Z,2.11
2018-04-30T11:57:00.936Z,2.84
2018-04-30T12:02:51.667Z,1.62
2018-04-30T12:08:42.419Z,2.22
2018-04-30T12:14:33.162Z,2.42
2018-04-30T12:20:23.859Z,2.12
2018-04-30T12:26:14.625Z,2.83
2018-04-30T12:32:05.382Z,2.13
2018-04-30T12:37:56.098Z,2.37
2018-04-30T12:43:46.878Z,2.33
2018-04-30T12:49:37.617Z,2.83
2018-04-30T12:55:28.329Z,1.81
2018-04-30T13:01:19.028Z,2.7
2018-04-30T13:07:09.759Z,2.12
2018-04-30T13:13:00.529Z,2.65
2018-04-30T13:18:51.262Z,2.29
2018-04-30T13:24:41.997Z,2.65
2018-04-30T13:30:32.738Z,2.52
2018-04-30T13:36:23.443Z,2
2018-04-30T13:42:14.208Z,2
2018-04-30T13:48:04.952Z,2.24
2018-04-30T13:53:55.666Z,1.74
2018-04-30T13:59:46.466Z,2.29
2018-04-30T14:05:37.220Z,2.39
2018-04-30T14:11:27.911Z,2.24
2018-04-30T14:17:18.661Z,2.21
2018-04-30T14:23:09.373Z,2.21
2018-04-30T14:29:00.136Z,2.08
2018-04-30T14:34:50.863Z,2.97
2018-04-30T14:40:41.621Z,2.4
2018-04-30T14:46:32.370Z,2.76
2018-04-30T14:52:23.127Z,1.93
2018-04-30T14:58:13.838Z,2.2
2018-04-30T15:04:04.603Z,2.18
2018-04-30T15:09:55.308Z,1.79
2018-04-30T15:15:46.088Z,2.27
2018-04-30T15:21:36.807Z,2.03
2018-04-30T15:27:27.603Z,1.52
2018-04-30T15:33:18.305Z,2
2018-04-30T15:39:09.040Z,2.06
2018-04-30T15:44:59.773Z,1.82
2018-04-30T15:50:50.495Z,2.08
2018-04-30T15:56:41.233Z,1.57
2018-04-30T16:02:32.001Z,2.23
2018-04-30T16:08:22.715Z,2.62
2018-04-30T16:14:13.585Z,2.35
2018-04-30T16:20:04.180Z,2.61
2018-04-30T16:25:54.931Z,1.71
2018-04-30T16:31:45.657Z,2.15
2018-04-30T16:37:36.374Z,2.08
2018-04-30T16:43:27.148Z,2.62
2018-04-30T16:49:17.901Z,1.89
2018-04-30T16:55:08.626Z,1.42
2018-04-30T17:00:59.522Z,1.71
2018-04-30T17:06:50.091Z,1.9
2018-04-30T17:12:40.858Z,1.62
2018-04-30T17:18:31.562Z,1.84
2018-04-30T17:24:22.320Z,7.91
2018-04-30T17:30:13.042Z,2.5
2018-04-30T17:36:03.823Z,1.94
2018-04-30T17:41:54.531Z,2.71
2018-04-30T17:47:45.316Z,2.22
2018-04-30T17:53:36.032Z,2.73
2018-04-30T17:59:26.679Z,2.72
2018-04-30T18:05:17.426Z,2.87
2018-04-30T18:11:08.165Z,2.54
2018-04-30T18:16:58.911Z,3.69
2018-04-30T18:22:49.648Z,3.35
2018-04-30T18:28:40.372Z,3.67
2018-04-30T18:34:31.069Z,3.41
2018-04-30T18:40:21.856Z,4.04
2018-04-30T18:46:12.562Z,3.15
2018-04-30T18:52:03.256Z,3.33
2018-04-30T18:57:54.015Z,4.08
2018-04-30T19:03:44.724Z,3.52
2018-04-30T19:09:35.461Z,4.05
2018-04-30T19:15:26.148Z,3.79
2018-04-30T19:21:16.906Z,3.89
2018-04-30T19:27:07.676Z,3.98
2018-04-30T19:32:58.393Z,4.65
2018-04-30T19:38:49.040Z,4.11
2018-04-30T19:44:39.828Z,3.87
2018-04-30T19:50:30.526Z,5.74
2018-04-30T19:56:21.288Z,4.54
2018-04-30T20:02:12.123Z,4.46
2018-04-30T20:08:02.849Z,4.76
2018-04-30T20:13:53.533Z,4.52
2018-04-30T20:19:44.264Z,4.89
2018-04-30T20:25:34.980Z,5.3
2018-04-30T20:31:25.727Z,7.05
2018-04-30T20:37:16.412Z,4.32
2018-04-30T20:43:07.158Z,5.13
2018-04-30T20:48:57.857Z,5.22
2018-04-30T20:54:48.583Z,4.11
2018-04-30T21:00:39.302Z,4.43
2018-04-30T21:06:30.165Z,4.16
2018-04-30T21:12:20.823Z,4.19
2018-04-30T21:18:11.493Z,3.97
2018-04-30T21:24:02.207Z,4.54
2018-04-30T21:29:52.951Z,3.57
2018-04-30T21:35:43.688Z,3.85
2018-04-30T21:41:34.407Z,4.04
2018-04-30T21:47:25.118Z,3.86
2018-04-30T21:53:15.848Z,4.35
2018-04-30T21:59:06.524Z,3.54
2018-04-30T22:04:57.304Z,4
2018-04-30T22:10:47.956Z,3.42
2018-04-30T22:16:38.718Z,3.26
2018-04-30T22:22:29.453Z,3.2
2018-04-30T22:28:20.204Z,3.67
2018-04-30T22:34:10.948Z,3.42
2018-04-30T22:40:01.587Z,3.29
2018-04-30T22:45:52.298Z,3.08
2018-04-30T22:51:43.040Z,3.15
2018-04-30T22:57:33.790Z,2.8
2018-04-30T23:03:24.433Z,3.4
2018-04-30T23:09:15.170Z,3.2
2018-04-30T23:15:05.938Z,3.9
2018-04-30T23:20:56.629Z,3.12
2018-04-30T23:26:47.340Z,2.94
2018-04-30T23:32:38.074Z,3.27
2018-04-30T23:38:28.793Z,3.77
2018-04-30T23:44:19.516Z,3.64
2018-04-30T23:50:10.282Z,3.05
2018-04-30T23:56:00.917Z,3.86
